TAF and METAR

No METAR available for Auki Gwaunaru'u Airport

TAF for Auki Gwaunaru'u Airport

TAF AGGA 162310Z 1700/1724 16015KT 9999 -SHRA SCT018 BKN030 PROB40 INTER 1700/1706 5000 TSSH BKN016 SCT020CB
Report created 17. aug 01:10

between 17. aug 02:00 - 17. aug 02:00

wind 15 knots from SSE (160°) visibility > 10km light rain showers scattered clouds (~50% cover) at 1800 feet broken clouds (~75% cover) at 3000 feet